This is the latest recevied weather packets stored in our database for station/object K2ATL. If no packets are shown the sender has not sent any weather packets the latest 10 day(s).
| Time | Temp. | Humidity | Pressure | Rain* | Wind** | Luminosity | Snow |
|---|---|---|---|---|---|---|---|
| 1777838799 | 15.56° C | 47% | 1103 hPa | 0 mm | - | 748 W/m² | - |
| 1777838495 | 16.11° C | 44% | 1103.3 hPa | 0 mm | - | 761 W/m² | - |
| 1777838193 | 17.22° C | 42% | 1103.2 hPa | 0 mm | - | 777 W/m² | - |
| 1777837890 | 17.78° C | 43% | 1103.4 hPa | 0 mm | - | 792 W/m² | - |
| 1777837587 | 16.67° C | 43% | 1103.4 hPa | 0 mm | - | 802 W/m² | - |
| 1777837282 | 17.22° C | 44% | 1103.5 hPa | 0 mm | - | 815 W/m² | - |
| 1777836979 | 17.22° C | 43% | 1103.4 hPa | 0 mm | - | 825 W/m² | - |
| 1777836674 | 18.33° C | 41% | 1103.4 hPa | 0 mm | - | 837 W/m² | - |
| 1777836370 | 16.11° C | 46% | 1103.4 hPa | 0 mm | - | 846 W/m² | - |
| 1777836066 | 17.22° C | 42% | 1103.5 hPa | 0 mm | - | 858 W/m² | - |
| 1777835763 | 16.11° C | 44% | 1103.7 hPa | 0 mm | - | 871 W/m² | - |
| 1777835460 | 16.11° C | 43% | 1103.7 hPa | 0 mm | - | 880 W/m² | - |
| 1777835157 | 16.11° C | 44% | 1103.9 hPa | 0 mm | - | 888 W/m² | - |
| 1777834854 | 14.44° C | 46% | 1103.8 hPa | 0 mm | - | 895 W/m² | - |
| 1777834550 | 16.67° C | 45% | 1103.7 hPa | 0 mm | - | 907 W/m² | - |
| 1777834250 | 14.44° C | 45% | 1103.9 hPa | 0 mm | - | 907 W/m² | - |
| 1777833946 | 16.11° C | 43% | 1103.9 hPa | 0 mm | - | 907 W/m² | - |
| 1777833643 | 16.11° C | 45% | 1103.8 hPa | 0 mm | - | 918 W/m² | - |
| 1777833339 | 16.67° C | 45% | 1103.9 hPa | 0 mm | - | 926 W/m² | - |
| 1777833037 | 16.67° C | 43% | 1104.2 hPa | 0 mm | - | 931 W/m² | - |
| 1777832735 | 16.11° C | 46% | 1104.1 hPa | 0 mm | - | 935 W/m² | - |
| 1777832433 | 16.11° C | 46% | 1103.9 hPa | 0 mm | - | 941 W/m² | - |
| 1777832129 | 16.11° C | 45% | 1104.2 hPa | 0 mm | - | 946 W/m² | - |
| 1777831826 | 15° C | 47% | 1104.2 hPa | 0 mm | - | 951 W/m² | - |
| 1777831523 | 14.44° C | 49% | 1104.3 hPa | 0 mm | - | 956 W/m² | - |
* Rain latest hour (hover to see other rain measurements)
** Current wind speed in m/s (hover to see current wind gust speed)